PWSweather.com
Personal Weather Stations
Station Observations
KILMORRI1
Goose Lake, Morris, IL 60450

Goose LakeMorris, IL 60450

Lat: 41.34, Lon: -88.3

Elevation: 523

Station Type:

Latest ConditionsUpdated 3:30:03 AM CDT Monday, Aug 26, 2019
Currently Today's Max Today's Min Today's Average
Temperature 64.9°F18.3°C 66.7°F19.3°C 64.7°F18.2°C 65.4°F18.6°C
Dew Point 62.8°F17.1°C 62.9°F17.2°C 61.7°F16.5°C 62.5°F16.9°C
Winds 2.3 mph E3.7 kmh E 3.5 mph -5.6 kmh - - 1.8 mph 2.9 kmh
Wind Gusts 5.8 mph9.3 kmh 5.8 mph9.3 kmh - -
Humidity 93% 93% 84% 91%
Pressure 29.82 in1009.8 mb 29.89 in1012.2 mb 29.82 in1009.8 mb -
Precipitation - 0.06 in1.5 mm - -
Hour Temp Dew Point Humidity Winds Wind Gusts Pressure Precip Precip Rate Daily Precip Total
03:30 AM 64.9°F18.3°C 62.8°F17.1°C 93% 2.3 mph E3.7 kmh E 5.8 mph9.3 kmh 29.82 in1009.8 mb - 0.00 in0.0 mm 0.06 in1.5 mm
03:20 AM 64.9°F18.3°C 62.8°F17.1°C 93% 2.3 mph E3.7 kmh E 2.3 mph3.7 kmh 29.82 in1009.8 mb - 0.00 in0.0 mm 0.06 in1.5 mm
03:10 AM 64.9°F18.3°C 62.9°F17.2°C 93% 2.3 mph E3.7 kmh E 2.3 mph3.7 kmh 29.82 in1009.8 mb - 0.00 in0.0 mm 0.06 in1.5 mm
03:00 AM 64.9°F18.3°C 62.8°F17.1°C 93% 2.3 mph E3.7 kmh E 3.5 mph5.6 kmh 29.82 in1009.8 mb - 0.00 in0.0 mm 0.06 in1.5 mm
02:50 AM 65.0°F18.3°C 62.9°F17.2°C 93% 1.2 mph E1.9 kmh E 3.5 mph5.6 kmh 29.83 in1010.2 mb - 0.00 in0.0 mm 0.06 in1.5 mm
02:40 AM 65.0°F18.3°C 62.7°F17.1°C 92% 2.3 mph E3.7 kmh E 5.8 mph9.3 kmh 29.83 in1010.2 mb - 0.00 in0.0 mm 0.06 in1.5 mm
02:30 AM 65.2°F18.4°C 62.8°F17.1°C 92% 1.2 mph E1.9 kmh E 2.3 mph3.7 kmh 29.83 in1010.2 mb - 0.00 in0.0 mm 0.06 in1.5 mm
02:20 AM 65.2°F18.4°C 62.8°F17.1°C 92% 3.5 mph E5.6 kmh E 4.6 mph7.4 kmh 29.83 in1010.2 mb - 0.01 in0.3 mm 0.06 in1.5 mm
02:10 AM 65.0°F18.3°C 62.6°F17.0°C 92% 2.3 mph E3.7 kmh E 4.6 mph7.4 kmh 29.84 in1010.5 mb - 0.01 in0.3 mm 0.06 in1.5 mm
02:00 AM 64.8°F18.2°C 62.7°F17.1°C 93% 3.5 mph E5.6 kmh E 5.8 mph9.3 kmh 29.84 in1010.5 mb - 0.03 in0.8 mm 0.06 in1.5 mm
01:50 AM 64.7°F18.2°C 62.6°F17.0°C 93% 3.5 mph E5.6 kmh E 4.6 mph7.4 kmh 29.84 in1010.5 mb - 0.06 in1.5 mm 0.06 in1.5 mm
01:40 AM 64.7°F18.2°C 62.6°F17.0°C 93% 1.2 mph E1.9 kmh E 3.5 mph5.6 kmh 29.85 in1010.8 mb - 0.06 in1.5 mm 0.06 in1.5 mm
01:30 AM 64.7°F18.2°C 62.6°F17.0°C 93% 2.3 mph E3.7 kmh E 4.6 mph7.4 kmh 29.86 in1011.2 mb - 0.06 in1.5 mm 0.06 in1.5 mm
01:20 AM 65.0°F18.3°C 62.6°F17.0°C 92% 1.2 mph E1.9 kmh E 2.3 mph3.7 kmh 29.86 in1011.2 mb - 0.05 in1.3 mm 0.05 in1.3 mm
01:10 AM 65.4°F18.6°C 62.7°F17.1°C 91% Calm Calm 2.3 mph3.7 kmh 29.87 in1011.5 mb - 0.05 in1.3 mm 0.05 in1.3 mm
01:00 AM 65.8°F18.8°C 62.5°F16.9°C 89% 2.3 mph E3.7 kmh E 3.5 mph5.6 kmh 29.88 in1011.9 mb - 0.03 in0.8 mm 0.03 in0.8 mm
12:50 AM 66.1°F18.9°C 62.4°F16.9°C 88% 1.2 mph E1.9 kmh E 3.5 mph5.6 kmh 29.88 in1011.9 mb - 0.00 in0.0 mm 0.00 in0.0 mm
12:40 AM 66.2°F19.0°C 62.2°F16.8°C 87% Calm Calm -- 29.88 in1011.9 mb - 0.00 in0.0 mm 0.00 in0.0 mm
12:30 AM 66.3°F19.1°C 62.3°F16.8°C 87% Calm Calm -- 29.88 in1011.9 mb - 0.00 in0.0 mm 0.00 in0.0 mm
12:20 AM 66.4°F19.1°C 62.0°F16.7°C 86% 1.2 mph E1.9 kmh E 3.5 mph5.6 kmh 29.89 in1012.2 mb - 0.00 in0.0 mm 0.00 in0.0 mm
12:10 AM 66.5°F19.2°C 61.8°F16.6°C 85% 1.2 mph E1.9 kmh E 2.3 mph3.7 kmh 29.89 in1012.2 mb - 0.00 in0.0 mm 0.00 in0.0 mm
12:00 AM 66.7°F19.3°C 61.7°F16.5°C 84% 2.3 mph E3.7 kmh E 2.3 mph3.7 kmh 29.89 in1012.2 mb - 0.00 in0.0 mm 0.00 in0.0 mm